createdAt,value
2022-12-03T00:01:53.218Z,102061.63
2022-12-03T00:06:04.898Z,102056.00
2022-12-03T00:10:18.064Z,102066.19
2022-12-03T00:14:29.630Z,102049.44
2022-12-03T00:18:41.133Z,102047.59
2022-12-03T00:22:52.663Z,102054.31
2022-12-03T00:27:04.097Z,102049.56
2022-12-03T00:31:15.956Z,102048.31
2022-12-03T00:35:27.482Z,102039.22
2022-12-03T00:39:38.915Z,102037.69
2022-12-03T00:43:50.425Z,102036.00
2022-12-03T00:48:01.994Z,102038.94
2022-12-03T00:52:13.599Z,102031.41
2022-12-03T00:56:25.097Z,102027.91
2022-12-03T01:00:37.119Z,102032.38
2022-12-03T01:04:48.683Z,102034.75
2022-12-03T01:09:00.407Z,102028.59
2022-12-03T01:13:12.019Z,102025.53
2022-12-03T01:17:23.591Z,102030.69
2022-12-03T01:21:35.204Z,102031.97
2022-12-03T01:25:46.689Z,102033.50
2022-12-03T01:29:58.304Z,102021.06
2022-12-03T01:34:10.033Z,102018.13
2022-12-03T01:38:21.527Z,102020.38
2022-12-03T01:42:36.745Z,102018.81
2022-12-03T01:46:49.047Z,102013.38
2022-12-03T01:51:00.793Z,102013.00
2022-12-03T01:55:21.097Z,102009.59
2022-12-03T01:59:36.212Z,102006.94
2022-12-03T02:03:47.975Z,102015.31
2022-12-03T02:08:00.631Z,102009.31
2022-12-03T02:12:14.641Z,102013.66
2022-12-03T02:16:26.461Z,102018.69
2022-12-03T02:20:47.667Z,102003.31
2022-12-03T02:24:59.305Z,102003.44
2022-12-03T02:29:11.328Z,102014.34
2022-12-03T02:33:23.029Z,102020.63
2022-12-03T02:37:37.318Z,102003.88
2022-12-03T02:42:07.541Z,102002.06
2022-12-03T02:46:20.773Z,102013.75
2022-12-03T02:50:35.928Z,102007.78
2022-12-03T02:54:48.432Z,102003.97
2022-12-03T02:59:03.089Z,102007.47
2022-12-03T03:03:16.910Z,101976.34
2022-12-03T03:07:28.717Z,101992.81
2022-12-03T03:11:40.365Z,101992.41
2022-12-03T03:15:52.151Z,101995.78
2022-12-03T03:20:06.572Z,101994.94
2022-12-03T03:24:18.531Z,101981.81
2022-12-03T03:28:34.594Z,101991.16
2022-12-03T03:32:46.194Z,101989.06
2022-12-03T03:36:58.079Z,101992.97
2022-12-03T03:41:11.345Z,101983.34
2022-12-03T03:45:28.726Z,101979.69
2022-12-03T03:49:42.058Z,101974.53
2022-12-03T03:53:54.169Z,101965.88
2022-12-03T03:58:06.061Z,101966.03
2022-12-03T04:02:24.652Z,101953.06
2022-12-03T04:06:36.225Z,101962.00
2022-12-03T04:11:06.286Z,101961.88
2022-12-03T04:15:17.843Z,101964.66
2022-12-03T04:19:29.360Z,101972.91
2022-12-03T04:23:40.919Z,101964.25
2022-12-03T04:28:11.146Z,101961.88
2022-12-03T04:32:41.356Z,101958.50
2022-12-03T04:36:52.973Z,101949.72
2022-12-03T04:41:04.553Z,101966.63
2022-12-03T04:45:16.177Z,101954.31
2022-12-03T04:49:27.805Z,101958.97
2022-12-03T04:53:44.726Z,101959.50
2022-12-03T04:57:57.776Z,101961.47
2022-12-03T05:02:09.418Z,101958.69
2022-12-03T05:06:21.215Z,101963.72
2022-12-03T05:10:32.793Z,101960.38
2022-12-03T05:14:44.320Z,101969.03
2022-12-03T05:18:55.954Z,101957.28
2022-12-03T05:23:09.309Z,101961.91
2022-12-03T05:27:23.845Z,101951.16
2022-12-03T05:31:35.914Z,101946.69
2022-12-03T05:35:48.157Z,101933.84
2022-12-03T05:39:59.720Z,101944.72
2022-12-03T05:44:13.222Z,101936.34
2022-12-03T05:48:27.732Z,101935.50
2022-12-03T05:52:39.308Z,101941.38
2022-12-03T05:56:50.831Z,101928.97
2022-12-03T06:01:02.397Z,101936.34
2022-12-03T06:05:15.580Z,101933.03
2022-12-03T06:09:27.154Z,101928.00
2022-12-03T06:13:38.724Z,101927.28
2022-12-03T06:17:50.336Z,101920.75
2022-12-03T06:22:01.955Z,101924.38
2022-12-03T06:26:14.958Z,101917.91
2022-12-03T06:30:26.512Z,101911.94
2022-12-03T06:34:38.139Z,101908.75
2022-12-03T06:38:49.707Z,101913.63
2022-12-03T06:43:01.287Z,101903.56
2022-12-03T06:47:13.006Z,101903.44
2022-12-03T06:51:24.568Z,101909.16
2022-12-03T06:55:36.285Z,101904.81
2022-12-03T06:59:47.875Z,101906.50
2022-12-03T07:03:59.500Z,101909.53
2022-12-03T07:08:11.152Z,101913.03
2022-12-03T07:12:22.844Z,101911.50
2022-12-03T07:16:38.637Z,101924.75
2022-12-03T07:20:50.184Z,101918.09
2022-12-03T07:25:01.882Z,101928.53
2022-12-03T07:29:13.457Z,101923.53
2022-12-03T07:33:24.967Z,101923.25
2022-12-03T07:37:36.725Z,101925.22
2022-12-03T07:41:48.303Z,101919.91
2022-12-03T07:45:59.847Z,101924.25
2022-12-03T07:50:12.591Z,101928.56
2022-12-03T07:54:24.736Z,101932.75
2022-12-03T07:58:36.404Z,101934.72
2022-12-03T08:02:47.989Z,101930.81
2022-12-03T08:06:59.540Z,101924.38
2022-12-03T08:11:14.294Z,101929.69
2022-12-03T08:15:31.168Z,101926.63
2022-12-03T08:19:48.087Z,101928.44
2022-12-03T08:24:09.723Z,101932.19
2022-12-03T08:28:23.993Z,101931.06
2022-12-03T08:32:36.085Z,101929.13
2022-12-03T08:36:51.797Z,101931.50
2022-12-03T08:41:07.673Z,101917.53
2022-12-03T08:45:29.715Z,101914.63
2022-12-03T08:49:44.854Z,101915.34
2022-12-03T08:54:07.467Z,101916.00
2022-12-03T08:58:33.291Z,101919.34
2022-12-03T09:02:47.794Z,101921.31
2022-12-03T09:06:59.501Z,101913.81
2022-12-03T09:11:11.179Z,101910.88
2022-12-03T09:15:22.772Z,101898.59
2022-12-03T09:19:34.703Z,101915.03
2022-12-03T09:23:46.233Z,101899.69
2022-12-03T09:27:57.790Z,101912.41
2022-12-03T09:32:13.674Z,101912.69
2022-12-03T09:36:28.424Z,101909.63
2022-12-03T09:40:40.120Z,101902.34
2022-12-03T09:44:52.428Z,101914.31
2022-12-03T09:49:12.303Z,101912.50
2022-12-03T09:53:27.876Z,101908.31
2022-12-03T09:57:39.662Z,101905.41
2022-12-03T10:01:52.986Z,101903.56
2022-12-03T10:06:04.700Z,101899.56
2022-12-03T10:10:25.347Z,101887.28
2022-12-03T10:14:36.882Z,101898.34
2022-12-03T10:18:51.402Z,101883.66
2022-12-03T10:23:03.018Z,101897.59
2022-12-03T10:27:23.700Z,101895.22
2022-12-03T10:31:36.512Z,101880.59
2022-12-03T10:35:48.116Z,101885.31
2022-12-03T10:40:12.133Z,101868.56
2022-12-03T10:44:25.977Z,101876.53
2022-12-03T10:48:38.336Z,101862.44
2022-12-03T10:52:49.927Z,101860.19
2022-12-03T10:57:02.176Z,101852.25
2022-12-03T11:01:17.656Z,101853.41
2022-12-03T11:05:29.302Z,101847.66
2022-12-03T11:09:44.681Z,101848.19
2022-12-03T11:14:03.268Z,101830.66
2022-12-03T11:18:36.236Z,101845.72
2022-12-03T11:22:51.429Z,101834.72
2022-12-03T11:27:02.889Z,101818.13
2022-12-03T11:31:33.690Z,101814.50
2022-12-03T11:36:31.568Z,101823.69
2022-12-03T11:41:23.776Z,101813.78
2022-12-03T11:45:38.032Z,101823.41
2022-12-03T11:49:49.700Z,101803.72
2022-12-03T11:54:01.249Z,101810.28
2022-12-03T11:58:30.446Z,101798.13
2022-12-03T12:02:42.771Z,101794.66
2022-12-03T12:06:54.326Z,101789.06
2022-12-03T12:11:27.776Z,101785.31
2022-12-03T12:15:40.438Z,101790.28
2022-12-03T12:20:27.847Z,101779.69
2022-12-03T12:24:45.632Z,101780.38
2022-12-03T12:29:02.403Z,101774.94
2022-12-03T12:33:19.659Z,101770.47
2022-12-03T12:37:34.025Z,101759.03
2022-12-03T12:41:48.944Z,101755.81
2022-12-03T12:46:39.097Z,101752.50
2022-12-03T12:50:44.645Z,101747.63
2022-12-03T12:54:59.080Z,101746.09
2022-12-03T12:59:18.504Z,101747.03
2022-12-03T13:03:34.974Z,101741.56
2022-12-03T13:07:46.640Z,101745.88
2022-12-03T13:12:01.232Z,101735.28
2022-12-03T13:16:27.992Z,101738.16
2022-12-03T13:20:39.727Z,101730.94
2022-12-03T13:24:54.307Z,101749.09
2022-12-03T13:29:13.554Z,101740.59
2022-12-03T13:33:27.957Z,101737.31
2022-12-03T13:37:39.500Z,101721.59
2022-12-03T13:42:09.475Z,101727.28
2022-12-03T13:46:21.036Z,101725.75
2022-12-03T13:50:40.043Z,101733.25
2022-12-03T13:54:56.727Z,101723.41
2022-12-03T13:59:08.889Z,101715.88
2022-12-03T14:03:21.095Z,101709.06
2022-12-03T14:07:32.590Z,101701.78
2022-12-03T14:12:02.790Z,101701.78
2022-12-03T14:16:14.328Z,101699.00
2022-12-03T14:20:34.944Z,101690.06
2022-12-03T14:24:46.813Z,101694.25
2022-12-03T14:28:58.287Z,101696.28
2022-12-03T14:33:09.885Z,101700.63
2022-12-03T14:37:21.367Z,101700.91
2022-12-03T14:41:51.497Z,101707.50
2022-12-03T14:46:03.083Z,101690.41
2022-12-03T14:50:30.110Z,101700.00
2022-12-03T14:54:42.766Z,101698.88
2022-12-03T14:58:54.436Z,101697.50
2022-12-03T15:03:06.015Z,101698.88
2022-12-03T15:07:17.492Z,101698.09
2022-12-03T15:11:28.960Z,101694.44
2022-12-03T15:15:40.444Z,101696.97
2022-12-03T15:19:52.209Z,101690.28
2022-12-03T15:24:04.151Z,101690.56
2022-12-03T15:28:15.616Z,101670.09
2022-12-03T15:32:27.059Z,101689.72
2022-12-03T15:36:38.548Z,101682.50
2022-12-03T15:40:50.224Z,101681.81
2022-12-03T15:45:01.690Z,101696.44
2022-12-03T15:49:13.198Z,101694.34
2022-12-03T15:53:24.676Z,101702.16
2022-12-03T15:57:36.301Z,101700.91
2022-12-03T16:01:47.782Z,101696.88
2022-12-03T16:05:59.811Z,101701.88
2022-12-03T16:10:11.784Z,101701.06
2022-12-03T16:14:23.268Z,101699.25
2022-12-03T16:18:34.803Z,101690.31
2022-12-03T16:22:46.242Z,101680.69
2022-12-03T16:26:57.717Z,101695.44
2022-12-03T16:31:09.231Z,101691.81
2022-12-03T16:35:23.170Z,101693.47
2022-12-03T16:39:34.603Z,101690.72
2022-12-03T16:43:48.348Z,101686.13
2022-12-03T16:48:01.430Z,101679.03
2022-12-03T16:52:12.882Z,101687.53
2022-12-03T16:56:24.321Z,101678.59
2022-12-03T17:00:35.912Z,101674.97
2022-12-03T17:04:47.379Z,101672.88
2022-12-03T17:08:59.044Z,101684.75
2022-12-03T17:13:11.016Z,101676.25
2022-12-03T17:17:48.049Z,101677.06
2022-12-03T17:21:59.795Z,101678.06
2022-12-03T17:26:11.265Z,101677.78
2022-12-03T17:30:23.081Z,101673.72
2022-12-03T17:34:34.591Z,101672.47
2022-12-03T17:38:46.066Z,101666.91
2022-12-03T17:42:57.581Z,101661.59
2022-12-03T17:47:10.723Z,101663.41
2022-12-03T17:51:22.267Z,101664.00
2022-12-03T17:55:41.113Z,101661.91
2022-12-03T17:59:57.345Z,101664.56
2022-12-03T18:04:10.393Z,101655.09
2022-12-03T18:08:21.955Z,101651.22
2022-12-03T18:12:33.640Z,101650.53
2022-12-03T18:16:45.119Z,101645.22
2022-12-03T18:21:01.283Z,101654.84
2022-12-03T18:25:13.291Z,101653.28
2022-12-03T18:29:26.117Z,101653.88
2022-12-03T18:33:37.546Z,101637.94
2022-12-03T18:37:50.964Z,101643.25
2022-12-03T18:42:14.492Z,101649.50
2022-12-03T18:46:51.817Z,101639.47
2022-12-03T18:50:57.459Z,101625.72
2022-12-03T18:55:17.355Z,101636.41
2022-12-03T18:59:28.803Z,101635.03
2022-12-03T19:03:40.264Z,101649.66
2022-12-03T19:07:53.722Z,101641.16
2022-12-03T19:12:11.267Z,101645.47
2022-12-03T19:16:25.841Z,101638.97
2022-12-03T19:20:40.314Z,101634.59
2022-12-03T19:24:51.863Z,101643.66
2022-12-03T19:29:03.645Z,101634.50
2022-12-03T19:33:18.023Z,101640.06
2022-12-03T19:37:32.330Z,101639.78
2022-12-03T19:41:44.644Z,101638.72
2022-12-03T19:45:56.229Z,101613.06
2022-12-03T19:50:08.612Z,101621.69
2022-12-03T19:54:20.075Z,101619.34
2022-12-03T19:58:31.670Z,101616.69
2022-12-03T20:02:43.203Z,101612.91
2022-12-03T20:06:54.768Z,101601.19
2022-12-03T20:11:17.136Z,101614.75
2022-12-03T20:15:29.098Z,101614.44
2022-12-03T20:19:40.596Z,101610.56
2022-12-03T20:23:52.179Z,101612.75
2022-12-03T20:28:03.812Z,101614.19
2022-12-03T20:32:15.633Z,101612.25
2022-12-03T20:36:28.715Z,101622.13
2022-12-03T20:40:40.193Z,101600.69
2022-12-03T20:44:52.990Z,101594.41
2022-12-03T20:49:04.735Z,101591.91
2022-12-03T20:53:24.676Z,101603.59
2022-12-03T20:57:36.530Z,101592.31
2022-12-03T21:01:48.091Z,101587.72
2022-12-03T21:06:01.394Z,101588.09
2022-12-03T21:10:32.814Z,101585.47
2022-12-03T21:14:44.348Z,101583.78
2022-12-03T21:18:56.000Z,101578.91
2022-12-03T21:23:08.163Z,101574.91
2022-12-03T21:27:21.806Z,101572.53
2022-12-03T21:31:35.384Z,101587.13
2022-12-03T21:35:46.844Z,101590.22
2022-12-03T21:39:58.341Z,101572.41
2022-12-03T21:44:10.312Z,101579.50
2022-12-03T21:48:22.293Z,101590.63
2022-12-03T21:52:34.875Z,101574.50
2022-12-03T21:56:46.402Z,101552.66
2022-12-03T22:00:58.004Z,101581.31
2022-12-03T22:05:10.786Z,101569.34
2022-12-03T22:09:26.522Z,101583.25
2022-12-03T22:13:39.736Z,101579.50
2022-12-03T22:17:51.186Z,101562.94
2022-12-03T22:22:02.685Z,101575.72
2022-12-03T22:26:16.176Z,101572.91
2022-12-03T22:30:27.692Z,101572.09
2022-12-03T22:34:40.867Z,101567.38
2022-12-03T22:38:53.038Z,101568.09
2022-12-03T22:43:29.564Z,101573.19
2022-12-03T22:47:41.011Z,101554.16
2022-12-03T22:51:52.495Z,101557.63
2022-12-03T22:56:04.087Z,101552.91
2022-12-03T23:00:28.907Z,101561.13
2022-12-03T23:04:40.372Z,101550.38
2022-12-03T23:08:52.241Z,101551.66
2022-12-03T23:13:05.885Z,101545.94
2022-12-03T23:17:17.407Z,101543.44
2022-12-03T23:21:33.462Z,101539.81
2022-12-03T23:25:56.709Z,101542.47
2022-12-03T23:30:09.206Z,101549.28
2022-12-03T23:34:20.881Z,101550.94
2022-12-03T23:38:32.515Z,101538.69
2022-12-03T23:42:44.080Z,101526.16
2022-12-03T23:46:55.680Z,101547.03
2022-12-03T23:51:12.815Z,101546.06
2022-12-03T23:55:24.454Z,101548.25
2022-12-03T23:59:36.085Z,101546.91
